createdAt,value
2023-04-02T00:01:04.272Z,4.60
2023-04-02T00:03:42.303Z,4.85
2023-04-02T00:06:34.190Z,5.03
2023-04-02T00:09:14.909Z,5.25
2023-04-02T00:11:43.572Z,5.28
2023-04-02T00:14:29.932Z,4.95
2023-04-02T00:17:01.292Z,5.40
2023-04-02T00:19:58.733Z,4.68
2023-04-02T00:22:31.691Z,4.47
2023-04-02T00:25:03.998Z,5.10
2023-04-02T00:27:32.333Z,6.10
2023-04-02T00:30:00.094Z,5.68
2023-04-02T00:32:32.754Z,5.85
2023-04-02T00:35:01.462Z,6.10
2023-04-02T00:37:39.009Z,7.05
2023-04-02T00:40:26.777Z,5.75
2023-04-02T00:42:58.568Z,5.95
2023-04-02T00:45:33.285Z,5.10
2023-04-02T00:48:31.857Z,5.30
2023-04-02T00:51:15.902Z,4.35
2023-04-02T00:53:48.057Z,5.50
2023-04-02T00:56:31.052Z,5.20
2023-04-02T00:58:58.756Z,5.28
2023-04-02T01:01:36.633Z,5.20
2023-04-02T01:04:06.090Z,5.10
2023-04-02T01:06:38.079Z,4.90
2023-04-02T01:09:31.752Z,4.05
2023-04-02T01:12:29.676Z,4.47
2023-04-02T01:15:21.078Z,4.05
2023-04-02T01:18:20.774Z,4.32
2023-04-02T01:21:42.136Z,4.82
2023-04-02T01:24:14.303Z,4.75
2023-04-02T01:27:02.960Z,4.45
2023-04-02T01:29:42.143Z,3.90
2023-04-02T01:32:14.491Z,3.97
2023-04-02T01:34:45.529Z,3.90
2023-04-02T01:37:40.208Z,3.80
2023-04-02T01:40:38.695Z,3.80
2023-04-02T01:43:31.348Z,4.00
2023-04-02T01:46:23.357Z,3.83
2023-04-02T01:48:51.976Z,3.28
2023-04-02T01:51:36.010Z,4.10
2023-04-02T01:54:07.697Z,3.90
2023-04-02T01:56:35.724Z,3.75
2023-04-02T01:59:06.012Z,4.20
2023-04-02T02:01:49.154Z,3.67
2023-04-02T02:04:17.742Z,4.43
2023-04-02T02:06:47.168Z,4.47
2023-04-02T02:09:27.133Z,4.88
2023-04-02T02:11:56.639Z,4.80
2023-04-02T02:14:27.428Z,4.93
2023-04-02T02:17:00.114Z,5.13
2023-04-02T02:19:52.175Z,5.20
2023-04-02T02:22:31.771Z,5.25
2023-04-02T02:25:05.375Z,5.93
2023-04-02T02:28:00.230Z,5.88
2023-04-02T02:30:29.790Z,6.03
2023-04-02T02:33:14.305Z,5.60
2023-04-02T02:35:50.925Z,5.88
2023-04-02T02:39:23.077Z,5.63
2023-04-02T02:42:00.935Z,5.85
2023-04-02T02:44:35.294Z,6.30
2023-04-02T02:47:11.774Z,6.43
2023-04-02T02:49:46.190Z,6.30
2023-04-02T02:55:12.054Z,6.35
2023-04-02T02:58:31.336Z,6.03
2023-04-02T03:01:20.999Z,6.60
2023-04-02T03:03:54.941Z,6.20
2023-04-02T03:06:24.519Z,6.40
2023-04-02T03:09:40.544Z,6.28
2023-04-02T03:12:45.655Z,4.70
2023-04-02T03:15:41.709Z,5.55
2023-04-02T03:18:41.497Z,5.28
2023-04-02T03:21:35.155Z,5.35
2023-04-02T03:24:14.934Z,5.90
2023-04-02T03:27:16.566Z,5.60
2023-04-02T03:30:03.911Z,5.75
2023-04-02T03:32:40.357Z,5.32
2023-04-02T03:35:28.048Z,6.15
2023-04-02T03:38:06.511Z,7.38
2023-04-02T03:40:52.877Z,7.63
2023-04-02T03:43:29.484Z,8.68
2023-04-02T03:46:13.239Z,8.68
2023-04-02T03:48:47.966Z,8.57
2023-04-02T03:51:37.248Z,8.05
2023-04-02T03:54:05.626Z,8.50
2023-04-02T03:56:40.386Z,7.85
2023-04-02T03:59:41.492Z,7.68
2023-04-02T04:02:27.033Z,8.27
2023-04-02T04:04:57.427Z,7.03
2023-04-02T04:07:41.377Z,8.07
2023-04-02T04:10:19.393Z,8.60
2023-04-02T04:13:14.993Z,8.20
2023-04-02T04:16:11.888Z,7.90
2023-04-02T04:19:22.406Z,7.22
2023-04-02T04:22:19.020Z,8.77
2023-04-02T04:25:30.503Z,7.68
2023-04-02T04:28:42.516Z,8.13
2023-04-02T04:31:49.753Z,7.68
2023-04-02T04:34:53.542Z,7.65
2023-04-02T04:37:53.756Z,8.10
2023-04-02T04:40:56.133Z,7.57
2023-04-02T04:44:17.849Z,7.55
2023-04-02T04:47:31.164Z,6.85
2023-04-02T04:50:38.928Z,6.38
2023-04-02T04:53:29.978Z,6.25
2023-04-02T04:56:26.780Z,6.22
2023-04-02T04:59:32.317Z,6.93
2023-04-02T05:02:45.483Z,6.93
2023-04-02T05:05:40.678Z,7.32
2023-04-02T05:08:37.551Z,6.57
2023-04-02T05:11:21.609Z,6.32
2023-04-02T05:14:03.563Z,6.45
2023-04-02T05:16:47.355Z,5.97
2023-04-02T05:19:32.092Z,6.30
2023-04-02T05:22:12.875Z,5.70
2023-04-02T05:25:20.142Z,5.40
2023-04-02T05:28:10.425Z,5.95
2023-04-02T05:30:46.692Z,5.65
2023-04-02T05:33:32.895Z,5.38
2023-04-02T05:36:11.685Z,5.25
2023-04-02T05:38:47.712Z,5.07
2023-04-02T05:41:38.439Z,5.55
2023-04-02T05:44:28.586Z,5.10
2023-04-02T05:47:10.381Z,5.63
2023-04-02T05:49:50.967Z,5.30
2023-04-02T05:52:35.797Z,5.65
2023-04-02T05:55:12.372Z,6.03
2023-04-02T05:58:13.401Z,5.32
2023-04-02T06:00:42.095Z,5.18
2023-04-02T06:06:03.793Z,5.63
2023-04-02T06:08:43.581Z,5.20
2023-04-02T06:11:20.188Z,5.47
2023-04-02T06:13:47.426Z,5.40
2023-04-02T06:16:16.706Z,5.38
2023-04-02T06:18:44.613Z,4.78
2023-04-02T06:21:18.064Z,4.57
2023-04-02T06:24:03.210Z,4.57
2023-04-02T06:26:44.914Z,5.35
2023-04-02T06:29:39.962Z,4.45
2023-04-02T06:32:12.902Z,4.40
2023-04-02T06:34:43.634Z,4.10
2023-04-02T06:37:32.675Z,4.15
2023-04-02T06:40:33.921Z,4.27
2023-04-02T06:43:33.636Z,3.95
2023-04-02T06:46:34.517Z,3.28
2023-04-02T06:49:48.203Z,2.85
2023-04-02T06:52:28.428Z,2.83
2023-04-02T06:54:57.237Z,3.15
2023-04-02T06:57:25.076Z,2.88
2023-04-02T06:59:53.818Z,3.40
2023-04-02T07:02:39.911Z,3.47
2023-04-02T07:05:11.589Z,2.90
2023-04-02T07:07:43.842Z,3.40
2023-04-02T07:10:13.071Z,2.70
2023-04-02T07:12:40.732Z,2.55
2023-04-02T07:15:14.990Z,2.35
2023-04-02T07:17:43.557Z,2.75
2023-04-02T07:20:30.356Z,2.60
2023-04-02T07:23:01.353Z,2.35
2023-04-02T07:25:28.538Z,2.90
2023-04-02T07:27:56.724Z,2.22
2023-04-02T07:30:23.837Z,2.40
2023-04-02T07:32:50.956Z,2.33
2023-04-02T07:35:18.139Z,2.50
2023-04-02T07:37:45.713Z,1.58
2023-04-02T07:40:21.927Z,2.40
2023-04-02T07:42:49.230Z,1.88
2023-04-02T07:45:16.579Z,1.80
2023-04-02T07:47:43.605Z,2.03
2023-04-02T07:50:11.174Z,1.80
2023-04-02T07:52:42.681Z,1.55
2023-04-02T07:55:12.889Z,1.80
2023-04-02T07:57:48.464Z,1.80
2023-04-02T08:00:16.303Z,2.00
2023-04-02T08:02:43.370Z,2.40
2023-04-02T08:05:10.952Z,2.05
2023-04-02T08:07:39.146Z,1.77
2023-04-02T08:10:10.863Z,1.80
2023-04-02T08:12:38.576Z,1.80
2023-04-02T08:15:07.018Z,1.92
2023-04-02T08:17:34.216Z,1.90
2023-04-02T08:20:01.905Z,1.60
2023-04-02T08:22:29.707Z,1.58
2023-04-02T08:24:57.114Z,1.52
2023-04-02T08:27:25.426Z,2.10
2023-04-02T08:29:52.634Z,1.50
2023-04-02T08:32:19.686Z,1.55
2023-04-02T08:34:46.746Z,1.70
2023-04-02T08:37:14.438Z,1.45
2023-04-02T08:39:41.529Z,1.45
2023-04-02T08:42:41.001Z,1.50
2023-04-02T08:45:41.227Z,1.75
2023-04-02T08:48:12.959Z,1.40
2023-04-02T08:50:44.294Z,1.60
2023-04-02T08:53:21.184Z,1.30
2023-04-02T08:56:05.721Z,1.55
2023-04-02T08:59:12.726Z,1.23
2023-04-02T09:02:05.982Z,1.60
2023-04-02T09:04:34.590Z,1.88
2023-04-02T09:07:01.676Z,1.48
2023-04-02T09:09:28.897Z,1.60
2023-04-02T09:12:04.368Z,1.27
2023-04-02T09:14:52.883Z,1.42
2023-04-02T09:17:24.456Z,1.50
2023-04-02T09:19:58.846Z,1.42
2023-04-02T09:25:02.014Z,1.52
2023-04-02T09:27:33.436Z,1.20
2023-04-02T09:30:29.468Z,1.52
2023-04-02T09:33:02.689Z,1.30
2023-04-02T09:35:32.760Z,1.40
2023-04-02T09:38:21.605Z,1.35
2023-04-02T09:40:58.454Z,1.52
2023-04-02T09:43:37.748Z,1.38
2023-04-02T09:46:19.083Z,1.33
2023-04-02T09:48:58.424Z,1.30
2023-04-02T09:51:31.741Z,1.60
2023-04-02T09:54:02.062Z,1.20
2023-04-02T09:56:35.583Z,1.52
2023-04-02T09:59:21.943Z,1.40
2023-04-02T10:01:55.348Z,1.35
2023-04-02T10:04:37.283Z,1.10
2023-04-02T10:07:06.556Z,1.40
2023-04-02T10:09:38.424Z,1.40
2023-04-02T10:12:13.874Z,1.50
2023-04-02T10:14:48.400Z,1.30
2023-04-02T10:20:06.168Z,1.58
2023-04-02T10:22:33.518Z,1.48
2023-04-02T10:25:01.538Z,1.90
2023-04-02T10:27:57.301Z,1.50
2023-04-02T10:30:50.033Z,1.50
2023-04-02T10:33:51.660Z,1.42
2023-04-02T10:36:51.476Z,1.30
2023-04-02T10:39:48.515Z,1.30
2023-04-02T10:42:29.068Z,1.15
2023-04-02T10:45:18.257Z,1.20
2023-04-02T10:47:57.309Z,1.50
2023-04-02T10:50:37.572Z,1.23
2023-04-02T10:53:33.382Z,1.30
2023-04-02T10:56:09.990Z,1.27
2023-04-02T10:58:55.593Z,1.40
2023-04-02T11:01:31.197Z,1.40
2023-04-02T11:04:14.288Z,1.52
2023-04-02T11:07:03.470Z,1.33
2023-04-02T11:09:45.353Z,1.52
2023-04-02T11:12:41.538Z,1.45
2023-04-02T11:15:19.140Z,1.65
2023-04-02T11:17:47.755Z,1.40
2023-04-02T11:20:57.246Z,1.30
2023-04-02T11:23:30.401Z,1.42
2023-04-02T11:26:37.639Z,1.20
2023-04-02T11:29:29.632Z,1.30
2023-04-02T11:32:20.672Z,1.10
2023-04-02T11:35:06.402Z,1.10
2023-04-02T11:37:43.277Z,1.05
2023-04-02T11:40:16.302Z,1.13
2023-04-02T11:42:45.810Z,1.10
2023-04-02T11:45:24.630Z,0.90
2023-04-02T11:48:08.049Z,1.17
2023-04-02T11:50:46.449Z,1.38
2023-04-02T11:53:17.072Z,1.27
2023-04-02T11:56:18.243Z,1.30
2023-04-02T11:59:16.475Z,1.25
2023-04-02T12:02:18.454Z,1.00
2023-04-02T12:04:57.404Z,1.20
2023-04-02T12:08:05.228Z,1.10
2023-04-02T12:10:51.317Z,1.20
2023-04-02T12:13:21.943Z,1.20
2023-04-02T12:15:52.522Z,1.25
2023-04-02T12:18:24.419Z,1.38
2023-04-02T12:20:56.280Z,1.10
2023-04-02T12:23:36.989Z,1.30
2023-04-02T12:26:27.772Z,1.10
2023-04-02T12:28:56.260Z,0.98
2023-04-02T12:31:25.325Z,1.45
2023-04-02T12:33:53.557Z,1.35
2023-04-02T12:36:23.675Z,1.20
2023-04-02T12:38:54.382Z,1.40
2023-04-02T12:41:33.364Z,1.52
2023-04-02T12:44:11.502Z,1.30
2023-04-02T12:46:40.051Z,1.20
2023-04-02T12:49:30.982Z,1.10
2023-04-02T12:52:01.851Z,1.30
2023-04-02T12:54:35.596Z,1.50
2023-04-02T12:57:27.648Z,1.38
2023-04-02T13:00:21.041Z,1.17
2023-04-02T13:03:06.572Z,1.25
2023-04-02T13:05:54.840Z,1.20
2023-04-02T13:08:40.712Z,1.55
2023-04-02T13:11:08.606Z,1.40
2023-04-02T13:13:41.238Z,1.38
2023-04-02T13:16:35.074Z,1.30
2023-04-02T13:19:17.400Z,1.30
2023-04-02T13:21:46.178Z,1.20
2023-04-02T13:24:22.493Z,1.20
2023-04-02T13:26:53.604Z,1.30
2023-04-02T13:29:31.440Z,1.13
2023-04-02T13:32:02.550Z,1.40
2023-04-02T13:34:30.202Z,1.30
2023-04-02T13:36:58.857Z,1.42
2023-04-02T13:39:27.092Z,1.10
2023-04-02T13:42:01.222Z,1.40
2023-04-02T13:44:32.705Z,1.40
2023-04-02T13:47:01.195Z,1.40
2023-04-02T13:49:28.923Z,1.60
2023-04-02T13:52:05.540Z,1.27
2023-04-02T13:54:58.851Z,1.20
2023-04-02T13:57:25.982Z,1.20
2023-04-02T13:59:52.979Z,1.10
2023-04-02T14:02:25.180Z,1.27
2023-04-02T14:05:41.890Z,1.10
2023-04-02T14:08:35.900Z,1.40
2023-04-02T14:11:21.560Z,1.30
2023-04-02T14:14:19.492Z,1.17
2023-04-02T14:17:07.053Z,1.60
2023-04-02T14:20:20.309Z,1.42
2023-04-02T14:23:00.051Z,1.75
2023-04-02T14:25:53.950Z,1.23
2023-04-02T14:28:57.460Z,1.00
2023-04-02T14:32:03.447Z,1.30
2023-04-02T14:34:41.963Z,1.10
2023-04-02T14:38:13.891Z,1.25
2023-04-02T14:40:56.871Z,1.38
2023-04-02T14:43:31.386Z,1.10
2023-04-02T14:48:48.188Z,1.27
2023-04-02T14:51:30.826Z,1.25
2023-04-02T14:54:38.618Z,1.30
2023-04-02T14:57:18.635Z,0.88
2023-04-02T15:00:09.766Z,0.70
2023-04-02T15:02:47.188Z,1.08
2023-04-02T15:05:42.103Z,1.33
2023-04-02T15:08:30.024Z,1.35
2023-04-02T15:11:08.567Z,1.17
2023-04-02T15:13:49.912Z,0.93
2023-04-02T15:16:23.602Z,1.40
2023-04-02T15:18:53.131Z,1.40
2023-04-02T15:21:36.967Z,1.20
2023-04-02T15:24:54.316Z,1.20
2023-04-02T15:28:00.365Z,1.15
2023-04-02T15:30:52.385Z,1.10
2023-04-02T15:33:49.532Z,1.00
2023-04-02T15:36:35.320Z,1.20
2023-04-02T15:39:34.576Z,1.10
2023-04-02T15:42:29.496Z,0.90
2023-04-02T15:45:11.698Z,1.15
2023-04-02T15:47:54.645Z,1.05
2023-04-02T15:50:46.795Z,1.10
2023-04-02T15:54:18.334Z,1.10
2023-04-02T15:56:57.206Z,1.40
2023-04-02T15:59:42.834Z,1.15
2023-04-02T16:02:47.706Z,1.00
2023-04-02T16:05:42.459Z,0.95
2023-04-02T16:08:45.695Z,0.93
2023-04-02T16:11:15.990Z,1.20
2023-04-02T16:13:43.471Z,0.90
2023-04-02T16:16:29.844Z,1.38
2023-04-02T16:19:16.614Z,1.10
2023-04-02T16:22:12.151Z,1.45
2023-04-02T16:27:17.731Z,1.05
2023-04-02T16:30:16.854Z,1.00
2023-04-02T16:33:26.847Z,1.05
2023-04-02T16:36:14.251Z,1.70
2023-04-02T16:39:15.149Z,1.20
2023-04-02T16:42:28.649Z,1.13
2023-04-02T16:45:41.943Z,1.15
2023-04-02T16:48:30.416Z,1.10
2023-04-02T16:51:23.107Z,1.10
2023-04-02T16:54:12.208Z,1.00
2023-04-02T16:56:57.517Z,0.90
2023-04-02T17:00:12.805Z,0.90
2023-04-02T17:03:17.886Z,0.90
2023-04-02T17:06:05.776Z,1.10
2023-04-02T17:09:14.483Z,1.05
2023-04-02T17:11:44.857Z,0.80
2023-04-02T17:14:34.724Z,1.00
2023-04-02T17:17:04.492Z,1.10
2023-04-02T17:19:32.739Z,1.00
2023-04-02T17:22:04.444Z,1.00
2023-04-02T17:24:42.608Z,0.85
2023-04-02T17:27:25.616Z,0.93
2023-04-02T17:30:02.074Z,0.90
2023-04-02T17:32:33.689Z,1.30
2023-04-02T17:35:18.787Z,0.90
2023-04-02T17:38:01.584Z,1.05
2023-04-02T17:40:43.068Z,1.25
2023-04-02T17:43:30.944Z,1.00
2023-04-02T17:46:14.723Z,1.00
2023-04-02T17:48:48.595Z,1.15
2023-04-02T17:51:38.378Z,1.20
2023-04-02T17:54:47.695Z,1.33
2023-04-02T17:58:11.286Z,1.25
2023-04-02T18:00:58.838Z,1.02
2023-04-02T18:03:49.157Z,1.10
2023-04-02T18:06:28.100Z,1.20
2023-04-02T18:09:59.901Z,1.30
2023-04-02T18:12:50.511Z,1.10
2023-04-02T18:15:49.838Z,1.10
2023-04-02T18:18:19.680Z,1.30
2023-04-02T18:21:07.623Z,1.15
2023-04-02T18:24:02.079Z,1.00
2023-04-02T18:26:58.405Z,1.40
2023-04-02T18:29:56.655Z,1.10
2023-04-02T18:32:46.820Z,1.00
2023-04-02T18:35:35.455Z,0.98
2023-04-02T18:38:55.006Z,1.20
2023-04-02T18:41:49.498Z,1.40
2023-04-02T18:44:34.632Z,1.23
2023-04-02T18:47:23.933Z,1.17
2023-04-02T18:50:17.821Z,1.30
2023-04-02T18:52:45.924Z,1.10
2023-04-02T18:55:27.863Z,1.25
2023-04-02T18:58:06.310Z,1.30
2023-04-02T19:00:39.992Z,1.35
2023-04-02T19:03:29.196Z,1.00
2023-04-02T19:06:05.435Z,1.67
2023-04-02T19:08:47.080Z,1.10
2023-04-02T19:11:28.571Z,1.45
2023-04-02T19:14:01.157Z,1.20
2023-04-02T19:16:52.514Z,1.10
2023-04-02T19:19:38.069Z,1.05
2023-04-02T19:22:54.566Z,1.50
2023-04-02T19:26:07.006Z,1.30
2023-04-02T19:29:04.196Z,1.35
2023-04-02T19:32:29.457Z,1.52
2023-04-02T19:35:17.849Z,1.25
2023-04-02T19:38:12.856Z,1.60
2023-04-02T19:40:42.913Z,1.42
2023-04-02T19:43:11.279Z,1.50
2023-04-02T19:45:46.880Z,1.50
2023-04-02T19:48:18.790Z,1.50
2023-04-02T19:50:47.087Z,1.60
2023-04-02T19:53:15.313Z,1.33
2023-04-02T19:55:43.867Z,1.80
2023-04-02T19:58:23.384Z,1.67
2023-04-02T20:00:50.419Z,1.58
2023-04-02T20:03:17.444Z,1.80
2023-04-02T20:05:44.474Z,2.05
2023-04-02T20:08:11.982Z,1.55
2023-04-02T20:10:39.387Z,2.47
2023-04-02T20:13:06.472Z,1.88
2023-04-02T20:15:34.191Z,2.20
2023-04-02T20:18:01.919Z,1.80
2023-04-02T20:20:28.932Z,1.80
2023-04-02T20:22:55.954Z,2.05
2023-04-02T20:25:23.069Z,1.83
2023-04-02T20:27:50.048Z,1.85
2023-04-02T20:30:17.204Z,2.58
2023-04-02T20:32:44.272Z,2.42
2023-04-02T20:35:11.400Z,2.20
2023-04-02T20:37:40.871Z,1.90
2023-04-02T20:40:09.969Z,2.10
2023-04-02T20:42:37.072Z,2.72
2023-04-02T20:45:06.168Z,2.58
2023-04-02T20:47:33.294Z,2.42
2023-04-02T20:50:00.343Z,2.67
2023-04-02T20:52:30.036Z,2.67
2023-04-02T20:54:57.450Z,4.00
2023-04-02T20:57:26.079Z,4.10
2023-04-02T20:59:54.589Z,4.80
2023-04-02T21:02:21.654Z,4.60
2023-04-02T21:04:48.721Z,4.75
2023-04-02T21:07:15.997Z,4.30
2023-04-02T21:09:42.918Z,4.10
2023-04-02T21:12:09.933Z,4.00
2023-04-02T21:14:39.034Z,3.72
2023-04-02T21:17:07.649Z,3.83
2023-04-02T21:19:35.589Z,4.43
2023-04-02T21:22:03.397Z,5.10
2023-04-02T21:24:30.444Z,4.47
2023-04-02T21:26:57.420Z,5.03
2023-04-02T21:29:24.456Z,4.65
2023-04-02T21:31:52.447Z,5.15
2023-04-02T21:34:19.504Z,4.80
2023-04-02T21:36:48.722Z,4.85
2023-04-02T21:39:22.197Z,5.22
2023-04-02T21:41:51.947Z,4.57
2023-04-02T21:44:22.856Z,5.20
2023-04-02T21:46:53.026Z,5.25
2023-04-02T21:49:23.163Z,4.63
2023-04-02T21:51:51.636Z,4.75
2023-04-02T21:54:19.282Z,5.15
2023-04-02T21:56:47.617Z,5.32
2023-04-02T21:59:16.834Z,5.10
2023-04-02T22:01:51.116Z,4.90
2023-04-02T22:04:24.756Z,4.78
2023-04-02T22:06:52.775Z,4.65
2023-04-02T22:09:24.036Z,4.22
2023-04-02T22:11:55.345Z,4.00
2023-04-02T22:14:23.374Z,4.38
2023-04-02T22:16:50.880Z,4.00
2023-04-02T22:19:18.179Z,3.58
2023-04-02T22:21:46.319Z,3.90
2023-04-02T22:24:16.362Z,4.40
2023-04-02T22:26:44.535Z,4.30
2023-04-02T22:29:12.269Z,3.92
2023-04-02T22:31:39.472Z,4.18
2023-04-02T22:34:07.330Z,4.20
2023-04-02T22:36:35.282Z,4.53
2023-04-02T22:39:05.651Z,4.88
2023-04-02T22:41:33.325Z,4.80
2023-04-02T22:44:01.730Z,4.70
2023-04-02T22:46:30.171Z,4.70
2023-04-02T22:48:57.430Z,5.57
2023-04-02T22:51:27.613Z,5.05
2023-04-02T22:53:55.917Z,5.85
2023-04-02T22:56:28.610Z,5.13
2023-04-02T22:58:55.920Z,5.00
2023-04-02T23:01:31.106Z,5.15
2023-04-02T23:03:58.584Z,4.50
2023-04-02T23:06:26.539Z,4.72
2023-04-02T23:08:53.615Z,4.43
2023-04-02T23:11:24.846Z,4.32
2023-04-02T23:13:56.653Z,3.90
2023-04-02T23:16:26.990Z,4.35
2023-04-02T23:18:56.144Z,4.00
2023-04-02T23:21:24.054Z,3.67
2023-04-02T23:23:51.484Z,3.95
2023-04-02T23:26:23.116Z,3.95
2023-04-02T23:28:51.425Z,4.07
2023-04-02T23:31:22.052Z,3.60
2023-04-02T23:33:51.327Z,3.33
2023-04-02T23:36:28.741Z,3.97
2023-04-02T23:39:01.223Z,3.97
2023-04-02T23:41:29.996Z,4.03
2023-04-02T23:43:58.317Z,3.60
2023-04-02T23:46:25.883Z,3.63
2023-04-02T23:48:54.465Z,4.07
2023-04-02T23:51:22.751Z,4.10
2023-04-02T23:53:51.608Z,3.63
2023-04-02T23:56:19.865Z,3.95
2023-04-02T23:58:46.855Z,4.15
